To NAV CANADA Home Page Login to a new session Search on AWWS site Disclaimer Vers la page française équivalente Tips FAQ What's new on the site To the Forecasts and Observations / NOTAM section To "File a Flight Plan" website Publications and other links Update of the User's profile FIC Telephone Numbers My Weather Data Folder Route Weather Data Regional Weather Data Local Weather Data To the Forecasts and Observations / NOTAM section
Request Generated 01/26/2023 at 21:19:24 UTC . Weather information available at that time is displayed.

METAR/TAF

WINDSOR/ON    (show WxCam)

SPECI CYQG 262117Z AUTO 24007KT 8SM -SN -UP BKN012 BKN022 BKN055 OVC068 00/M01 A2984 RMK SLP113=
SPECI CYQG 262111Z AUTO 25005KT 9SM -SNRA -UP SCT012 BKN016 BKN055 OVC068 00/M02 A2984 RMK SLP112=
SPECI CYQG 262109Z AUTO 27005KT 9SM -SNRA SCT012 BKN018 BKN050 OVC066 00/M02 A2984 RMK SLP112=
SPECI CYQG 262107Z AUTO 26004KT 9SM -SNRA -UP SCT012 BKN018 BKN050 OVC066 00/M02 A2984 RMK SLP113=
SPECI CYQG 262103Z AUTO 27006KT 9SM -RA -UP FEW012 BKN018 BKN055 OVC067 00/M02 A2983 RMK SLP111=
SPECI CYQG 262101Z AUTO 27006KT 9SM -RA -UP SCT015 BKN050 OVC066 00/M02 A2983 RMK SLP111=
METAR CYQG 262100Z AUTO 28006KT 9SM -UP SCT015 BKN055 OVC067 00/M02 A2983 RMK SLP112=
SPECI CYQG 262058Z AUTO 27007KT 9SM -UP FEW011 SCT018 BKN050 OVC066 00/M02 A2983 RMK SLP110=
SPECI CYQG 262056Z AUTO 27008KT 9SM -RA FEW011 SCT018 BKN055 OVC067 00/M02 A2983 RMK SLP110=
SPECI CYQG 262044Z AUTO 25005KT 9SM -RA SCT013 BKN018 BKN050 OVC066 00/M02 A2983 RMK SLP109=
SPECI CYQG 262040Z AUTO 25007KT 8SM -RA SCT013 SCT020 BKN050 OVC066 00/M02 A2982 RMK SLP108=
SPECI CYQG 262039Z AUTO 25008KT 8SM SCT013 SCT033 BKN050 OVC066 00/M02 A2982 RMK SLP108=
SPECI CYQG 262027Z AUTO 25007KT 9SM -RA SCT013 BKN033 OVC049 00/M01 A2982 RMK SLP107=
SPECI CYQG 262022Z AUTO 25007KT 9SM -SNRA SCT013 BKN033 OVC049 00/M01 A2982 RMK SLP107=
SPECI CYQG 262021Z AUTO 25008KT 9SM -SNRA -UP SCT013 BKN033 OVC049 00/M01 A2982 RMK SLP106=
SPECI CYQG 262019Z AUTO 25008KT 9SM -SN -UP SCT013 BKN033 OVC049 00/M02 A2982 RMK SLP106=
SPECI CYQG 262011Z AUTO 24007KT 6SM -SN -UP BKN013 BKN035 OVC049 00/M02 A2982 RMK SLP106=
SPECI CYQG 262010Z AUTO 25007KT 5SM -SN -UP BKN013 BKN035 OVC049 00/M02 A2982 RMK SLP106=
METAR CYQG 262000Z AUTO 25010KT 5SM -SN SCT010 BKN016 BKN033 OVC046 00/M02 A2981 RMK SLP105=
SPECI CYQG 261911Z AUTO 26009KT 3SM -SN SCT012 BKN023 OVC032 00/M02 A2981 RMK SLP102=
SPECI CYQG 261910Z AUTO 26008KT 3SM -SN SCT012 SCT023 OVC032 00/M02 A2981 RMK SLP102=
METAR CYQG 261900Z AUTO 25009KT 3SM -SN SCT012 BKN021 BKN027 OVC034 M00/M02 A2981 RMK SLP102=

TAF CYQG 261740Z 2618/2718 25010KT 2SM -SHSN OVC015 TEMPO 2618/2624
6SM -SN OVC025 PROB30 2618/2624 1 1/2SM -SHSN OVC010
FM270000 22008KT 1 1/2SM -SHSN OVC010 TEMPO 2700/2708 6SM -SN
OVC020 PROB30 2700/2708 3/4SM -SHSN VV008
FM270800 24015KT 6SM -SHSN OVC015
RMK FCST BASED ON AUTO OBS. NXT FCST BY 270000Z

LONDON/ON    

SPECI CYXU 262104Z 30003KT 1 1/2SM -SHSN OVC024 M02/M04 A2978 RMK SN6SC2 CVCTV CLD EMBD SLP100=
METAR CYXU 262100Z 30003KT 2SM -SHSN OVC024 M02/M04 A2978 RMK SN5SC3 CVCTV CLD EMBD SLP100=
SPECI CYXU 262044Z 31003KT 2SM -SHSN OVC018 M02/M04 A2977 RMK SN4SC4 CVCTV CLD EMBD SLP097=
SPECI CYXU 262024Z 29007KT 260V320 6SM -SHSN OVC018 M02/M05 A2977 RMK SC8 CVCTV CLD EMBD SLP094=
METAR CYXU 262000Z 33005KT 15SM BKN019 OVC060 M01/M05 A2976 RMK SC5SC3 SLP091=
METAR CYXU 261900Z 30007KT 15SM FEW018 SCT025 OVC075 M01/M05 A2974 RMK SF1SC3AS5 SF TR SLP083=

TAF CYXU 261740Z 2618/2718 32010KT P6SM -SHSN BKN030 TEMPO 2618/2619
4SM -SHSN OVC020
FM261900 30008KT 1 1/2SM -SHSN BKN008 OVC015 TEMPO 2619/2710 6SM
-SHSN OVC025
BECMG 2702/2704 24010G20KT
FM271000 25012G22KT 3SM -SHSN BKN006 OVC010
FM271700 21015G25KT 3SM -SHSN SCT008 OVC015
RMK NXT FCST BY 270000Z=

SARNIA (CHRIS HADFIELD)/ON    (show WxCam)

SPECI CYZR 262108Z AUTO 27008KT 6SM -SN BKN022 BKN036 BKN048 OVC055 M00/M03 A2981 RMK SLP103=
METAR CYZR 262100Z AUTO 27006KT 7SM -SN SCT022 BKN039 OVC050 M00/M03 A2981 RMK SLP102=
SPECI CYZR 262046Z AUTO 26006KT 9SM -SN FEW018 SCT044 BKN055 OVC072 M00/M03 A2980 RMK SLP100=
SPECI CYZR 262023Z AUTO 29005KT 9SM SCT016 SCT043 BKN050 OVC071 M00/M03 A2979 RMK SLP098=
SPECI CYZR 262021Z AUTO 29007KT 9SM -SN SCT016 SCT043 BKN050 OVC071 M00/M03 A2979 RMK SLP098=
SPECI CYZR 262008Z AUTO 28007KT 6SM -SN BKN016 OVC046 M00/M03 A2979 RMK SLP097=
SPECI CYZR 262006Z AUTO 28004KT 5SM -SN BKN016 OVC046 M00/M03 A2979 RMK SLP097=
METAR CYZR 262000Z AUTO 29007KT 5SM -SN SCT016 BKN046 OVC055 M00/M03 A2979 RMK PCPN 0.8MM PAST HR SLP097=
SPECI CYZR 261959Z AUTO 29007KT 5SM -SN FEW016 OVC048 M00/M03 A2979 RMK PCPN 0.8MM PAST HR SLP096=
SPECI CYZR 261939Z AUTO 30006KT 9SM -SN SCT016 OVC050 M00/M03 A2978 RMK PCPN 0.8MM PAST HR SLP094=
METAR CYZR 261900Z AUTO 30009KT 9SM FEW014 SCT044 OVC050 M00/M03 A2977 RMK PCPN 0.5MM PAST HR SLP091=

TAF CYZR 261940Z 2620/2703 30010KT P6SM OVC030 TEMPO 2620/2624 4SM
-SN OVC020
FM270000 VRB03KT 6SM -SN OVC025 TEMPO 2700/2703 2SM -SN SCT006
OVC012 PROB40 2700/2703 1SM -SN OVC006
RMK FCST BASED ON AUTO OBS. NXT FCST BY 270900Z=

KITCHENER/WATERLOO/ON    (show WxCam)

SPECI CYKF 262101Z AUTO 29009KT 9SM OVC027 M03/M06 A2976 RMK SLP092=
METAR CYKF 262100Z AUTO 29008KT 9SM -SN OVC027 M03/M06 A2976 RMK SLP093=
SPECI CYKF 262051Z AUTO 30009KT 9SM -SN FEW021 OVC027 M03/M06 A2975 RMK SLP090=
SPECI CYKF 262047Z AUTO 29009KT 9SM -SN OVC025 M03/M06 A2975 RMK SLP090=
SPECI CYKF 262034Z AUTO 29010KT 9SM OVC021 M03/M06 A2974 RMK SLP088=
SPECI CYKF 262017Z AUTO 30007KT 9SM -SN OVC021 M03/M06 A2973 RMK SLP084=
METAR CYKF 262000Z AUTO 30010KT 9SM OVC021 M03/M07 A2973 RMK SLP082=
METAR CYKF 261900Z AUTO 30010G15KT 9SM OVC021 M03/M07 A2970 RMK SLP075=

TAF AMD CYKF 262102Z 2621/2708 30008KT P6SM OVC025 TEMPO 2621/2702
5SM -SN OVC020
FM270200 23005KT 3SM -SN BR BKN006 OVC012
RMK FCST BASED ON AUTO OBS. NXT FCST BY 270200Z=

HAMILTON/ON    

METAR CYHM 262100Z 27007KT 260V320 15SM BKN026 OVC088 M02/M06 A2977 RMK SC6AS2 SLP092=
METAR CYHM 262000Z 28010G15KT 15SM BKN024 BKN040 M02/M06 A2974 RMK SC6SC1 SLP082=
METAR CYHM 261900Z 29007KT 270V330 15SM OVC020 M02/M06 A2972 RMK SC8 SLP075=

TAF CYHM 261740Z 2618/2718 30013KT P6SM OVC015 TEMPO 2618/2623
OVC025
FM262300 27005KT P6SM -SN SCT015 OVC030
FM270600 VRB03KT 2SM -SN BKN006 OVC012
FM271200 24012G22KT 6SM -SN SCT008 OVC020
FM271700 23015G25KT P6SM -SHSN BKN030
RMK NXT FCST BY 270000Z

TORONTO/LESTER B. PEARSON INTL/ON    

METAR CYYZ 262100Z 30013KT 15SM BKN030 BKN090 M01/M06 A2976 RMK SC7AC1 AC TR SLP087=
METAR CYYZ 262000Z 32011KT 15SM SCT025 BKN140 BKN250 M01/M06 A2973 RMK SC3AC2CI2 SLP078=
METAR CYYZ 261900Z 32012G17KT 15SM BKN025 BKN140 M01/M06 A2970 RMK SC5AC2 SLP068=

TAF CYYZ 262040Z 2621/2724 32012KT P6SM SCT025 BKN140
FM270300 28008KT P6SM -SHSN OVC020
FM270600 VRB03KT P6SM BKN015 OVC080
FM271600 21015KT P6SM BKN030
BECMG 2717/2719 22015G25KT
RMK NXT FCST BY 270000Z=
Your time UTC time
Weather data provided by Environment Canada and NAV CANADA